Time;durP1;ratioP1;P1;durP2;ratioP2;P2;SDS_P1;SDS_P2;PMS_P1;PMS_P2;Temp;Humidity;BMP_temperature;BMP_pressure;BME280_temperature;BME280_humidity;BME280_pressure;Samples;Min_cycle;Max_cycle;Signal;HPM_P1;HPM_P2
2021/11/14 00:01:04;;;;;;;45.33;20.33;;;;;;;;;;5028666;28;20032;-60
2021/11/14 00:03:31;;;;;;;43.85;19.52;;;;;;;;;;5028396;28;20390;-59
2021/11/14 00:05:57;;;;;;;40.78;19.95;;;;;;;;;;5024892;28;20045;-59
2021/11/14 00:08:22;;;;;;;53.08;20.52;;;;;;;;;;5025176;28;20041;-60
2021/11/14 00:10:52;;;;;;;45.83;21.85;;;;;;;;;;5021284;28;20091;-59
2021/11/14 00:13:18;;;;;;;46.55;20.35;;;;;;;;;;5018844;28;20030;-59
2021/11/14 00:15:44;;;;;;;60.28;20.30;;;;;;;;;;5029148;28;20064;-59
2021/11/14 00:18:10;;;;;;;54.42;19.50;;;;;;;;;;5022424;28;20472;-59
2021/11/14 00:20:36;;;;;;;48.83;18.45;;;;;;;;;;5023634;28;20052;-59
2021/11/14 00:23:03;;;;;;;43.55;17.55;;;;;;;;;;5015700;28;20029;-59
2021/11/14 00:25:28;;;;;;;34.40;16.52;;;;;;;;;;5026263;28;20504;-59
2021/11/14 00:27:54;;;;;;;41.08;17.48;;;;;;;;;;5018260;28;20065;-59
2021/11/14 00:30:20;;;;;;;38.70;17.33;;;;;;;;;;5022011;28;20428;-60
2021/11/14 00:32:46;;;;;;;30.45;13.77;;;;;;;;;;5020443;28;20029;-60
2021/11/14 00:35:12;;;;;;;30.25;13.13;;;;;;;;;;5018090;28;20030;-60
2021/11/14 00:37:37;;;;;;;30.35;13.73;;;;;;;;;;5018838;28;20036;-59
2021/11/14 00:40:09;;;;;;;28.83;13.35;;;;;;;;;;5015881;28;20037;-60
2021/11/14 00:42:34;;;;;;;26.17;12.35;;;;;;;;;;5019115;28;20172;-60
2021/11/14 00:45:00;;;;;;;27.05;12.40;;;;;;;;;;5019392;28;20533;-60
2021/11/14 00:47:25;;;;;;;29.17;12.45;;;;;;;;;;5025959;28;20539;-59
2021/11/14 00:49:51;;;;;;;27.92;12.98;;;;;;;;;;5024239;28;20034;-59
2021/11/14 00:52:16;;;;;;;23.48;9.98;;;;;;;;;;5021022;28;20400;-59
2021/11/14 00:54:42;;;;;;;22.65;10.90;;;;;;;;;;5024415;28;20045;-60
2021/11/14 00:57:07;;;;;;;24.77;9.57;;;;;;;;;;5021813;28;20112;-58
2021/11/14 00:59:33;;;;;;;23.70;8.55;;;;;;;;;;5017355;28;20599;-60
2021/11/14 01:01:58;;;;;;;24.80;9.50;;;;;;;;;;5017184;28;20029;-60
2021/11/14 01:04:23;;;;;;;26.83;9.65;;;;;;;;;;5017992;28;20196;-60
2021/11/14 01:06:49;;;;;;;17.25;7.85;;;;;;;;;;5028199;28;20560;-59
2021/11/14 01:09:14;;;;;;;18.23;8.10;;;;;;;;;;5023139;28;20057;-59
2021/11/14 01:11:40;;;;;;;20.10;8.15;;;;;;;;;;5020135;28;20060;-59
2021/11/14 01:14:05;;;;;;;19.38;7.80;;;;;;;;;;5026016;28;20045;-59
2021/11/14 01:16:30;;;;;;;18.45;6.63;;;;;;;;;;5018114;28;20156;-59
2021/11/14 01:18:56;;;;;;;16.67;5.07;;;;;;;;;;5023899;28;20061;-60
2021/11/14 01:21:22;;;;;;;11.77;4.80;;;;;;;;;;5020464;28;20033;-59
2021/11/14 01:23:49;;;;;;;11.80;4.80;;;;;;;;;;5017846;28;20091;-60
2021/11/14 01:26:15;;;;;;;12.43;5.72;;;;;;;;;;5032560;28;20036;-59
2021/11/14 01:28:40;;;;;;;11.75;4.30;;;;;;;;;;5028189;28;20030;-60
2021/11/14 01:31:06;;;;;;;12.93;5.03;;;;;;;;;;5028417;28;20054;-59
2021/11/14 01:33:31;;;;;;;9.52;4.43;;;;;;;;;;5027879;28;20515;-59
2021/11/14 01:35:57;;;;;;;12.05;4.57;;;;;;;;;;5023103;28;20029;-60
2021/11/14 01:38:24;;;;;;;10.52;4.75;;;;;;;;;;5031784;28;20459;-60
2021/11/14 01:40:50;;;;;;;7.03;3.92;;;;;;;;;;5028700;28;20018;-60
2021/11/14 01:43:19;;;;;;;8.70;3.88;;;;;;;;;;5021266;28;20045;-59
2021/11/14 01:45:44;;;;;;;8.30;4.05;;;;;;;;;;5027949;28;20408;-60
2021/11/14 01:48:10;;;;;;;6.40;2.83;;;;;;;;;;5025723;28;20037;-60
2021/11/14 01:50:36;;;;;;;5.85;3.15;;;;;;;;;;5026663;28;20112;-59
2021/11/14 01:53:01;;;;;;;7.47;3.30;;;;;;;;;;5026693;28;20108;-61
2021/11/14 01:55:28;;;;;;;10.63;2.97;;;;;;;;;;5025489;28;20099;-59
2021/11/14 01:57:54;;;;;;;6.82;3.88;;;;;;;;;;5027791;28;20772;-59
2021/11/14 02:00:31;;;;;;;9.70;3.20;;;;;;;;;;5029926;28;20029;-60
2021/11/14 02:02:57;;;;;;;9.07;3.65;;;;;;;;;;5022874;28;20708;-60
2021/11/14 02:05:23;;;;;;;7.88;4.28;;;;;;;;;;5028728;28;20112;-60
2021/11/14 02:07:53;;;;;;;10.15;5.25;;;;;;;;;;5028929;28;20485;-59
2021/11/14 02:10:23;;;;;;;11.55;5.05;;;;;;;;;;5026835;28;20030;-59
2021/11/14 02:12:54;;;;;;;11.35;5.38;;;;;;;;;;5023847;28;20108;-59
2021/11/14 02:15:21;;;;;;;15.02;5.90;;;;;;;;;;5031619;28;20037;-59
2021/11/14 02:17:47;;;;;;;13.95;6.05;;;;;;;;;;5025874;28;20033;-61
2021/11/14 02:20:13;;;;;;;12.68;6.55;;;;;;;;;;5023784;28;20040;-59
2021/11/14 02:22:39;;;;;;;14.40;6.82;;;;;;;;;;5023533;28;20547;-59
2021/11/14 02:25:06;;;;;;;24.27;7.63;;;;;;;;;;5025506;28;20120;-59
2021/11/14 02:27:31;;;;;;;22.15;7.90;;;;;;;;;;5021169;28;20029;-60
2021/11/14 02:29:59;;;;;;;21.40;8.88;;;;;;;;;;5026333;28;20032;-60
2021/11/14 02:32:24;;;;;;;22.25;10.00;;;;;;;;;;5019372;28;20033;-60
2021/11/14 02:34:49;;;;;;;19.80;8.98;;;;;;;;;;5024953;28;20095;-60
2021/11/14 02:37:15;;;;;;;20.73;9.65;;;;;;;;;;5023395;28;20029;-60
2021/11/14 02:39:41;;;;;;;21.00;9.40;;;;;;;;;;5023852;28;20481;-59
2021/11/14 02:42:06;;;;;;;22.70;9.40;;;;;;;;;;5020423;28;20081;-59
2021/11/14 02:44:32;;;;;;;20.95;10.40;;;;;;;;;;5025306;28;20108;-59
2021/11/14 02:46:58;;;;;;;19.95;10.45;;;;;;;;;;5026993;28;20030;-60
2021/11/14 02:49:23;;;;;;;23.10;10.18;;;;;;;;;;5027269;28;20045;-60
2021/11/14 02:51:49;;;;;;;25.15;10.55;;;;;;;;;;5028886;28;20067;-60
2021/11/14 02:54:14;;;;;;;21.55;10.27;;;;;;;;;;5027447;28;20046;-59
2021/11/14 02:56:40;;;;;;;29.27;9.57;;;;;;;;;;5026586;28;20431;-60
2021/11/14 02:59:06;;;;;;;25.48;9.57;;;;;;;;;;5027705;28;20160;-59
2021/11/14 03:01:47;;;;;;;20.13;9.55;;;;;;;;;;5024389;28;20021;-59
2021/11/14 03:04:20;;;;;;;23.55;9.93;;;;;;;;;;5026177;28;20821;-60
2021/11/14 03:06:48;;;;;;;27.58;12.15;;;;;;;;;;5025756;28;20108;-59
2021/11/14 03:09:13;;;;;;;26.60;12.45;;;;;;;;;;5027805;28;20512;-59
2021/11/14 03:11:39;;;;;;;32.60;13.52;;;;;;;;;;5021891;28;20025;-59
2021/11/14 03:14:05;;;;;;;35.67;14.50;;;;;;;;;;5026610;28;20251;-60
2021/11/14 03:16:32;;;;;;;37.25;15.35;;;;;;;;;;5022672;28;20640;-59
2021/11/14 03:18:58;;;;;;;30.63;13.13;;;;;;;;;;5022870;28;20033;-59
2021/11/14 03:21:24;;;;;;;23.25;11.35;;;;;;;;;;5024425;28;20245;-60
2021/11/14 03:23:50;;;;;;;35.85;13.57;;;;;;;;;;5021796;28;20578;-60
2021/11/14 03:26:16;;;;;;;32.20;12.75;;;;;;;;;;5022427;28;20099;-60
2021/11/14 03:28:43;;;;;;;26.95;12.40;;;;;;;;;;5026620;28;20519;-60
2021/11/14 03:31:09;;;;;;;39.88;15.38;;;;;;;;;;5023179;28;20030;-60
2021/11/14 03:33:35;;;;;;;39.33;15.90;;;;;;;;;;5022473;28;20022;-60
2021/11/14 03:36:04;;;;;;;37.97;16.05;;;;;;;;;;5026827;28;20036;-59
2021/11/14 03:38:55;;;;;;;38.25;16.30;;;;;;;;;;5027131;28;20514;-60
2021/11/14 03:41:24;;;;;;;38.03;15.30;;;;;;;;;;5022964;28;20588;-59
2021/11/14 03:43:50;;;;;;;39.25;17.77;;;;;;;;;;5021066;28;20053;-60
2021/11/14 03:46:16;;;;;;;48.33;18.10;;;;;;;;;;5023822;28;20041;-60
2021/11/14 03:48:45;;;;;;;35.47;16.48;;;;;;;;;;5025163;28;20087;-59
2021/11/14 03:51:12;;;;;;;33.13;16.60;;;;;;;;;;5026619;28;20025;-59
2021/11/14 03:53:38;;;;;;;35.45;15.70;;;;;;;;;;5028667;28;20017;-60
2021/11/14 03:56:05;;;;;;;47.00;21.17;;;;;;;;;;5027016;28;20044;-60
2021/11/14 03:58:30;;;;;;;41.03;16.77;;;;;;;;;;5022514;28;20029;-59
2021/11/14 04:00:59;;;;;;;37.35;16.48;;;;;;;;;;5027357;28;20421;-61
2021/11/14 04:03:26;;;;;;;41.50;17.23;;;;;;;;;;5024445;28;20083;-60
2021/11/14 04:05:52;;;;;;;36.78;16.40;;;;;;;;;;5022975;28;20044;-60
2021/11/14 04:08:20;;;;;;;30.55;15.75;;;;;;;;;;5019219;28;20028;-58
2021/11/14 04:10:48;;;;;;;41.83;16.15;;;;;;;;;;5019860;28;20029;-58
2021/11/14 04:13:14;;;;;;;32.88;16.23;;;;;;;;;;5025632;28;20036;-59
2021/11/14 04:15:41;;;;;;;35.78;16.20;;;;;;;;;;5022470;28;20029;-59
2021/11/14 04:18:06;;;;;;;47.42;17.25;;;;;;;;;;5018519;28;20048;-61
2021/11/14 04:20:34;;;;;;;32.88;15.73;;;;;;;;;;5022683;28;20025;-59
2021/11/14 04:23:00;;;;;;;37.92;16.58;;;;;;;;;;5023736;28;20079;-59
2021/11/14 04:25:26;;;;;;;42.72;18.05;;;;;;;;;;5018866;28;20045;-60
2021/11/14 04:27:53;;;;;;;37.30;17.58;;;;;;;;;;5028391;28;20100;-60
2021/11/14 04:30:18;;;;;;;36.28;17.35;;;;;;;;;;5023849;28;20029;-60
2021/11/14 04:32:44;;;;;;;47.25;18.77;;;;;;;;;;5022477;28;20029;-59
2021/11/14 04:35:10;;;;;;;40.72;19.17;;;;;;;;;;5023364;28;20570;-61
2021/11/14 04:37:36;;;;;;;34.53;16.90;;;;;;;;;;5027705;28;20106;-61
2021/11/14 04:40:04;;;;;;;43.00;19.45;;;;;;;;;;5023016;28;20036;-60
2021/11/14 04:42:30;;;;;;;42.65;20.27;;;;;;;;;;5020154;28;20168;-60
2021/11/14 04:44:56;;;;;;;38.00;17.15;;;;;;;;;;5020802;28;20041;-60
2021/11/14 04:47:22;;;;;;;36.97;17.52;;;;;;;;;;5021361;28;20099;-60
2021/11/14 04:49:47;;;;;;;37.25;17.58;;;;;;;;;;5021663;28;20094;-61
2021/11/14 04:52:13;;;;;;;45.03;19.23;;;;;;;;;;5020413;28;20512;-61
2021/11/14 04:54:38;;;;;;;35.70;16.70;;;;;;;;;;5023366;28;20037;-61
2021/11/14 04:57:04;;;;;;;35.45;18.30;;;;;;;;;;5020679;28;20500;-60
2021/11/14 04:59:30;;;;;;;45.75;18.80;;;;;;;;;;5026596;28;20030;-59
2021/11/14 05:01:56;;;;;;;42.47;18.17;;;;;;;;;;5030065;28;20440;-59
2021/11/14 05:04:21;;;;;;;37.05;17.60;;;;;;;;;;5026115;28;20021;-60
2021/11/14 05:06:47;;;;;;;35.80;17.23;;;;;;;;;;5028735;28;20523;-59
2021/11/14 05:09:12;;;;;;;37.60;16.75;;;;;;;;;;5032307;28;20037;-59
2021/11/14 05:11:38;;;;;;;35.40;17.10;;;;;;;;;;5022510;28;20033;-61
2021/11/14 05:14:04;;;;;;;40.05;17.92;;;;;;;;;;5027931;28;20055;-61
2021/11/14 05:16:29;;;;;;;39.67;18.25;;;;;;;;;;5026976;28;20029;-59
2021/11/14 05:18:55;;;;;;;38.05;17.98;;;;;;;;;;5033466;28;20037;-59
2021/11/14 05:21:21;;;;;;;38.00;17.67;;;;;;;;;;5023671;28;20083;-59
2021/11/14 05:23:47;;;;;;;42.75;18.55;;;;;;;;;;5031078;28;20480;-59
2021/11/14 05:26:13;;;;;;;45.63;19.25;;;;;;;;;;5018191;28;20049;-61
2021/11/14 05:28:39;;;;;;;47.63;21.45;;;;;;;;;;5023496;28;20033;-59
2021/11/14 05:31:04;;;;;;;46.75;20.20;;;;;;;;;;5017594;28;20030;-60
2021/11/14 05:33:30;;;;;;;52.40;21.45;;;;;;;;;;5027915;28;20024;-60
2021/11/14 05:35:56;;;;;;;46.08;20.67;;;;;;;;;;5019570;28;20026;-61
2021/11/14 05:38:22;;;;;;;40.22;19.15;;;;;;;;;;5024595;28;20029;-60
2021/11/14 05:40:48;;;;;;;40.53;18.70;;;;;;;;;;5028269;28;20571;-61
2021/11/14 05:43:14;;;;;;;37.88;18.52;;;;;;;;;;5025185;28;20045;-60
2021/11/14 05:45:40;;;;;;;40.30;18.48;;;;;;;;;;5022971;28;20555;-60
2021/11/14 05:48:06;;;;;;;43.72;19.00;;;;;;;;;;5026906;28;20038;-60
2021/11/14 05:50:31;;;;;;;43.75;20.70;;;;;;;;;;5029002;28;20048;-59
2021/11/14 05:52:57;;;;;;;39.05;18.80;;;;;;;;;;5026146;28;20026;-59
2021/11/14 05:55:23;;;;;;;45.92;19.63;;;;;;;;;;5022603;28;20042;-60
2021/11/14 05:57:54;;;;;;;45.28;20.10;;;;;;;;;;5022401;28;20440;-61
2021/11/14 06:00:29;;;;;;;44.55;20.23;;;;;;;;;;5025782;28;20045;-59
2021/11/14 06:05:39;;;;;;;41.20;19.73;;;;;;;;;;5024015;28;20044;-59
2021/11/14 06:08:07;;;;;;;39.47;18.88;;;;;;;;;;5026324;28;20038;-59
2021/11/14 06:10:33;;;;;;;43.53;19.73;;;;;;;;;;5021831;28;20234;-61
2021/11/14 06:12:58;;;;;;;42.72;19.55;;;;;;;;;;5025426;28;20036;-59
2021/11/14 06:15:24;;;;;;;41.17;19.33;;;;;;;;;;5026693;28;20034;-62
2021/11/14 06:17:50;;;;;;;44.95;20.88;;;;;;;;;;5024285;28;20044;-62
2021/11/14 06:20:17;;;;;;;43.70;18.58;;;;;;;;;;5030165;28;20073;-60
2021/11/14 06:22:43;;;;;;;45.13;20.20;;;;;;;;;;5028087;28;20068;-60
2021/11/14 06:25:10;;;;;;;38.75;20.15;;;;;;;;;;5027038;28;20519;-60
2021/11/14 06:27:37;;;;;;;46.20;19.73;;;;;;;;;;5026539;28;20022;-60
2021/11/14 06:30:09;;;;;;;47.00;20.40;;;;;;;;;;5026979;28;20060;-60
2021/11/14 06:32:35;;;;;;;39.55;19.27;;;;;;;;;;5024566;28;20064;-60
2021/11/14 06:35:01;;;;;;;42.45;19.02;;;;;;;;;;5030200;28;20064;-60
2021/11/14 06:37:27;;;;;;;45.00;21.55;;;;;;;;;;5026541;28;20481;-59
2021/11/14 06:39:53;;;;;;;42.15;20.70;;;;;;;;;;5029697;28;20028;-60
2021/11/14 06:42:19;;;;;;;41.58;20.98;;;;;;;;;;5020906;28;20038;-60
2021/11/14 06:44:45;;;;;;;44.53;20.73;;;;;;;;;;5026393;28;20049;-61
2021/11/14 06:47:12;;;;;;;51.65;20.67;;;;;;;;;;5025102;28;20477;-60
2021/11/14 06:49:37;;;;;;;44.95;18.13;;;;;;;;;;5026143;28;20045;-60
2021/11/14 06:52:03;;;;;;;43.35;20.63;;;;;;;;;;5025601;28;20035;-61
2021/11/14 06:54:29;;;;;;;42.90;20.00;;;;;;;;;;5028047;28;20497;-61
2021/11/14 06:56:55;;;;;;;44.83;19.27;;;;;;;;;;5026976;28;20084;-60
2021/11/14 06:59:21;;;;;;;42.58;19.90;;;;;;;;;;5027161;28;20033;-60
2021/11/14 07:01:46;;;;;;;44.58;20.42;;;;;;;;;;5019610;28;22164;-60
2021/11/14 07:04:12;;;;;;;44.90;20.08;;;;;;;;;;5027885;28;20032;-61
2021/11/14 07:06:38;;;;;;;50.08;22.13;;;;;;;;;;5029542;28;20064;-61
2021/11/14 07:09:04;;;;;;;51.35;20.98;;;;;;;;;;5030677;28;20090;-60
2021/11/14 07:11:30;;;;;;;46.75;20.50;;;;;;;;;;5031118;28;20037;-59
2021/11/14 07:13:56;;;;;;;47.85;20.05;;;;;;;;;;5026628;28;20460;-59
2021/11/14 07:16:22;;;;;;;43.88;19.58;;;;;;;;;;5023109;28;20555;-59
2021/11/14 07:18:47;;;;;;;37.47;17.85;;;;;;;;;;5026095;28;20073;-59
2021/11/14 07:21:13;;;;;;;34.65;16.98;;;;;;;;;;5027507;28;20108;-59
2021/11/14 07:23:39;;;;;;;34.75;18.05;;;;;;;;;;5026256;28;20460;-59
2021/11/14 07:26:04;;;;;;;47.13;20.58;;;;;;;;;;5021941;28;20082;-61
2021/11/14 07:28:30;;;;;;;42.67;18.45;;;;;;;;;;5025742;28;20091;-59
2021/11/14 07:30:55;;;;;;;37.40;19.55;;;;;;;;;;5022020;28;20173;-59
2021/11/14 07:33:21;;;;;;;37.90;17.58;;;;;;;;;;5022839;28;20049;-60
2021/11/14 07:35:46;;;;;;;38.90;17.98;;;;;;;;;;5018524;28;20036;-60
2021/11/14 07:38:12;;;;;;;42.05;17.85;;;;;;;;;;5018628;28;20507;-61
2021/11/14 07:40:38;;;;;;;40.00;18.25;;;;;;;;;;5024630;28;20041;-61
2021/11/14 07:43:04;;;;;;;41.00;17.10;;;;;;;;;;5026887;28;20081;-60
2021/11/14 07:45:29;;;;;;;38.97;16.85;;;;;;;;;;5022036;28;20065;-60
2021/11/14 07:47:56;;;;;;;33.00;15.38;;;;;;;;;;5023452;28;20040;-61
2021/11/14 07:50:25;;;;;;;35.10;15.82;;;;;;;;;;5024600;28;20679;-61
2021/11/14 07:52:51;;;;;;;36.58;16.13;;;;;;;;;;5016537;28;20201;-67
2021/11/14 07:55:16;;;;;;;36.25;16.40;;;;;;;;;;5025881;28;21758;-63
2021/11/14 07:57:43;;;;;;;34.03;16.45;;;;;;;;;;5027358;28;20111;-65
2021/11/14 08:00:14;;;;;;;34.17;15.70;;;;;;;;;;5028590;28;20051;-64
2021/11/14 08:02:40;;;;;;;35.00;15.80;;;;;;;;;;5020224;28;20044;-63
2021/11/14 08:05:07;;;;;;;36.03;15.68;;;;;;;;;;5019928;28;20029;-62
2021/11/14 08:07:32;;;;;;;30.65;16.55;;;;;;;;;;5015781;28;20127;-61
2021/11/14 08:09:58;;;;;;;34.05;16.80;;;;;;;;;;4995200;28;20572;-61
2021/11/14 08:12:23;;;;;;;43.25;18.55;;;;;;;;;;5018738;28;20044;-61
2021/11/14 08:14:49;;;;;;;43.40;18.75;;;;;;;;;;5020262;28;20029;-66
2021/11/14 08:17:16;;;;;;;37.75;18.42;;;;;;;;;;5021739;28;20056;-64
2021/11/14 08:19:43;;;;;;;39.33;18.85;;;;;;;;;;5017534;28;20041;-61
2021/11/14 08:22:09;;;;;;;43.20;18.75;;;;;;;;;;5020504;28;20385;-63
2021/11/14 08:24:38;;;;;;;40.10;19.08;;;;;;;;;;5019297;28;20041;-61
2021/11/14 08:27:04;;;;;;;47.08;19.90;;;;;;;;;;5018608;28;20043;-60
2021/11/14 08:29:30;;;;;;;42.10;19.55;;;;;;;;;;5017478;28;20034;-60
2021/11/14 08:31:56;;;;;;;48.75;20.00;;;;;;;;;;5023733;28;20033;-60
2021/11/14 08:34:21;;;;;;;43.13;19.38;;;;;;;;;;5020214;28;20029;-60
2021/11/14 08:36:47;;;;;;;47.00;19.83;;;;;;;;;;5021055;28;20030;-59
2021/11/14 08:39:12;;;;;;;43.08;20.50;;;;;;;;;;5026081;28;20546;-62
2021/11/14 08:41:38;;;;;;;39.20;19.30;;;;;;;;;;5038820;28;20044;-60
2021/11/14 08:44:05;;;;;;;41.35;18.60;;;;;;;;;;5018224;28;20064;-60
2021/11/14 08:46:31;;;;;;;46.25;18.75;;;;;;;;;;5026328;28;20435;-62
2021/11/14 08:48:59;;;;;;;40.03;17.90;;;;;;;;;;5019908;28;20040;-59
2021/11/14 08:51:25;;;;;;;41.13;18.33;;;;;;;;;;5025153;28;20555;-60
2021/11/14 08:53:58;;;;;;;39.75;16.92;;;;;;;;;;5021638;28;20480;-61
2021/11/14 08:56:23;;;;;;;31.25;14.95;;;;;;;;;;5022216;28;20405;-60
2021/11/14 08:58:49;;;;;;;36.20;15.40;;;;;;;;;;5020653;28;20055;-60
2021/11/14 09:01:14;;;;;;;38.35;16.95;;;;;;;;;;5024608;28;20396;-60
2021/11/14 09:03:40;;;;;;;29.42;14.60;;;;;;;;;;5024443;28;20030;-62
2021/11/14 09:06:05;;;;;;;30.45;13.90;;;;;;;;;;5023296;28;20041;-60
2021/11/14 09:08:31;;;;;;;28.00;13.90;;;;;;;;;;5016091;28;20052;-62
2021/11/14 09:10:57;;;;;;;30.10;12.80;;;;;;;;;;5019331;28;20022;-61
2021/11/14 09:13:24;;;;;;;34.10;14.15;;;;;;;;;;5019078;28;20463;-62
2021/11/14 09:15:51;;;;;;;31.38;12.18;;;;;;;;;;5015968;28;20033;-62
2021/11/14 09:18:17;;;;;;;25.45;13.65;;;;;;;;;;5020916;28;20175;-62
2021/11/14 09:20:44;;;;;;;19.90;11.18;;;;;;;;;;5016625;28;20039;-62
2021/11/14 09:23:09;;;;;;;25.02;11.55;;;;;;;;;;5020716;28;20119;-66
2021/11/14 09:25:39;;;;;;;21.08;11.43;;;;;;;;;;5023523;28;20429;-62
2021/11/14 09:28:06;;;;;;;23.75;11.50;;;;;;;;;;5020377;28;20767;-63
2021/11/14 09:30:32;;;;;;;25.75;11.75;;;;;;;;;;5020469;28;20033;-63
2021/11/14 09:32:57;;;;;;;27.55;11.35;;;;;;;;;;5023108;28;20044;-62
2021/11/14 09:35:23;;;;;;;23.30;10.35;;;;;;;;;;5024386;28;20061;-63
2021/11/14 09:37:49;;;;;;;19.17;8.82;;;;;;;;;;5022638;28;20037;-62
2021/11/14 09:40:14;;;;;;;19.80;9.98;;;;;;;;;;5024781;28;20032;-62
2021/11/14 09:42:41;;;;;;;21.02;10.15;;;;;;;;;;5007946;28;20045;-62
2021/11/14 09:45:09;;;;;;;22.17;10.32;;;;;;;;;;5018269;28;20076;-62
2021/11/14 09:47:39;;;;;;;24.60;11.30;;;;;;;;;;5021682;28;20032;-63
2021/11/14 09:50:07;;;;;;;24.17;9.70;;;;;;;;;;5017881;28;20041;-62
2021/11/14 09:52:33;;;;;;;24.10;11.63;;;;;;;;;;5018585;28;20117;-62
2021/11/14 09:55:06;;;;;;;24.17;11.10;;;;;;;;;;5020961;28;20037;-62
2021/11/14 09:57:32;;;;;;;25.85;11.25;;;;;;;;;;5024043;28;20021;-62
2021/11/14 09:59:57;;;;;;;20.25;9.35;;;;;;;;;;5017301;28;20042;-63
2021/11/14 10:02:23;;;;;;;22.65;8.80;;;;;;;;;;5020465;28;20108;-62
2021/11/14 10:04:50;;;;;;;21.83;8.40;;;;;;;;;;5021823;28;20556;-61
2021/11/14 10:07:18;;;;;;;20.38;9.45;;;;;;;;;;5024321;28;20040;-61
2021/11/14 10:09:47;;;;;;;16.88;8.25;;;;;;;;;;5025267;28;20606;-61
2021/11/14 10:12:18;;;;;;;17.17;8.93;;;;;;;;;;5022039;28;20029;-63
2021/11/14 10:14:46;;;;;;;20.55;8.48;;;;;;;;;;5024460;28;20067;-61
2021/11/14 10:17:25;;;;;;;18.80;7.63;;;;;;;;;;5018002;28;20485;-61
2021/11/14 10:20:04;;;;;;;13.25;7.00;;;;;;;;;;5020696;28;20025;-63
2021/11/14 10:22:31;;;;;;;34.25;8.20;;;;;;;;;;5003565;28;20564;-63
2021/11/14 10:24:58;;;;;;;14.85;6.97;;;;;;;;;;5018815;28;20036;-61
2021/11/14 10:27:26;;;;;;;12.75;7.07;;;;;;;;;;5018655;28;20029;-62
2021/11/14 10:29:52;;;;;;;17.02;6.32;;;;;;;;;;5021241;28;20029;-63
2021/11/14 10:32:18;;;;;;;13.75;5.80;;;;;;;;;;5019439;28;20041;-61
2021/11/14 10:34:57;;;;;;;11.07;5.50;;;;;;;;;;5020299;28;20040;-62
2021/11/14 10:37:23;;;;;;;9.73;4.75;;;;;;;;;;5018352;28;20512;-61
2021/11/14 10:39:55;;;;;;;17.65;5.47;;;;;;;;;;5019791;28;20033;-63
2021/11/14 10:42:24;;;;;;;11.05;5.60;;;;;;;;;;5017194;28;20292;-62
2021/11/14 10:44:55;;;;;;;11.15;6.03;;;;;;;;;;5022957;28;20029;-62
2021/11/14 10:47:22;;;;;;;17.42;7.05;;;;;;;;;;5022351;28;20063;-62
2021/11/14 10:50:05;;;;;;;12.82;6.78;;;;;;;;;;5019467;28;20079;-63
2021/11/14 10:52:32;;;;;;;12.90;6.10;;;;;;;;;;5025176;28;20120;-63
2021/11/14 10:55:09;;;;;;;15.38;6.88;;;;;;;;;;5025688;28;20050;-62
2021/11/14 10:57:37;;;;;;;16.77;6.85;;;;;;;;;;5020721;28;20498;-63
2021/11/14 11:00:13;;;;;;;36.15;7.93;;;;;;;;;;5021860;28;20052;-62
2021/11/14 11:02:44;;;;;;;14.45;7.07;;;;;;;;;;5024502;28;20030;-63
2021/11/14 11:05:17;;;;;;;15.75;6.55;;;;;;;;;;5026465;28;20033;-63
2021/11/14 11:08:04;;;;;;;12.48;6.95;;;;;;;;;;5021565;28;20111;-61
2021/11/14 11:10:41;;;;;;;17.20;8.38;;;;;;;;;;5020459;28;20527;-62
2021/11/14 11:13:37;;;;;;;20.10;7.03;;;;;;;;;;5023333;28;20032;-61
2021/11/14 11:16:04;;;;;;;22.13;7.22;;;;;;;;;;5022760;28;20116;-62
2021/11/14 11:18:30;;;;;;;15.20;6.80;;;;;;;;;;5025267;28;20079;-60
2021/11/14 11:20:58;;;;;;;26.35;8.15;;;;;;;;;;5025112;28;20108;-60
2021/11/14 11:23:25;;;;;;;14.98;7.43;;;;;;;;;;5023105;28;20034;-62
2021/11/14 11:26:05;;;;;;;16.13;6.90;;;;;;;;;;5020018;28;20029;-60
2021/11/14 11:28:40;;;;;;;18.08;7.32;;;;;;;;;;5023077;28;20033;-60
2021/11/14 11:31:19;;;;;;;23.15;7.88;;;;;;;;;;5016609;28;20026;-62
2021/11/14 11:33:50;;;;;;;20.40;7.45;;;;;;;;;;5026381;28;20026;-60
2021/11/14 11:36:16;;;;;;;20.70;7.63;;;;;;;;;;5020909;28;20375;-60
2021/11/14 11:38:45;;;;;;;17.25;7.25;;;;;;;;;;5015425;28;20036;-60
2021/11/14 11:41:15;;;;;;;12.07;6.30;;;;;;;;;;5014875;28;20075;-60
2021/11/14 11:43:41;;;;;;;16.90;7.15;;;;;;;;;;5021297;28;20475;-60
2021/11/14 11:46:13;;;;;;;15.25;7.70;;;;;;;;;;5023778;28;20161;-62
2021/11/14 11:48:39;;;;;;;;;;;;;;;;;;5013005;28;20091;-62
2021/11/14 11:51:10;;;;;;;17.15;8.13;;;;;;;;;;5020209;28;20408;-62
2021/11/14 11:53:37;;;;;;;20.23;8.85;;;;;;;;;;5017608;28;20481;-60
2021/11/14 11:56:16;;;;;;;25.23;10.55;;;;;;;;;;5020079;28;20349;-60
2021/11/14 11:58:46;;;;;;;24.70;10.68;;;;;;;;;;5023904;28;20484;-61
2021/11/14 12:01:22;;;;;;;24.00;10.68;;;;;;;;;;5023265;28;20037;-62
2021/11/14 12:03:48;;;;;;;22.00;10.38;;;;;;;;;;5024598;28;20367;-61
2021/11/14 12:06:27;;;;;;;25.95;9.73;;;;;;;;;;5020581;28;20029;-61
2021/11/14 12:08:58;;;;;;;23.70;10.20;;;;;;;;;;5023117;28;20098;-62
2021/11/14 12:11:31;;;;;;;22.27;11.20;;;;;;;;;;5020759;28;20287;-61
2021/11/14 12:14:00;;;;;;;35.33;12.00;;;;;;;;;;5017832;28;20018;-61
2021/11/14 12:16:31;;;;;;;35.03;14.52;;;;;;;;;;5023770;28;20028;-61
2021/11/14 12:19:00;;;;;;;33.42;17.08;;;;;;;;;;5019038;28;20022;-61
2021/11/14 12:21:29;;;;;;;40.33;19.80;;;;;;;;;;5012808;28;20373;-63
2021/11/14 12:23:54;;;;;;;35.65;18.30;;;;;;;;;;5016764;28;20032;-61
2021/11/14 12:26:33;;;;;;;41.25;18.38;;;;;;;;;;5022640;28;20033;-62
2021/11/14 12:29:03;;;;;;;42.25;18.63;;;;;;;;;;5019587;28;20029;-61
2021/11/14 12:31:31;;;;;;;36.78;18.10;;;;;;;;;;5028576;28;20045;-61
2021/11/14 12:34:03;;;;;;;33.53;16.42;;;;;;;;;;5023273;28;20057;-61
2021/11/14 12:36:40;;;;;;;43.53;17.45;;;;;;;;;;5017771;28;20520;-62
2021/11/14 12:39:31;;;;;;;34.28;17.48;;;;;;;;;;5017400;28;20033;-61
2021/11/14 12:42:19;;;;;;;36.13;16.60;;;;;;;;;;5017021;28;20083;-59
2021/11/14 12:44:50;;;;;;;38.67;18.27;;;;;;;;;;5021105;28;20040;-59
2021/11/14 12:47:22;;;;;;;38.55;17.85;;;;;;;;;;5018948;28;20488;-59
2021/11/14 12:49:50;;;;;;;39.58;18.85;;;;;;;;;;5015355;28;20033;-59
2021/11/14 12:52:29;;;;;;;32.33;15.55;;;;;;;;;;5015539;28;20033;-61
2021/11/14 12:54:57;;;;;;;38.05;15.93;;;;;;;;;;5017700;28;20065;-60
2021/11/14 12:57:25;;;;;;;29.73;15.50;;;;;;;;;;5015871;28;20024;-60
2021/11/14 12:59:52;;;;;;;31.13;14.75;;;;;;;;;;5020732;28;20487;-59
2021/11/14 13:02:24;;;;;;;30.27;14.27;;;;;;;;;;5018939;28;20476;-61
2021/11/14 13:04:50;;;;;;;26.33;14.13;;;;;;;;;;5018349;28;20563;-59
2021/11/14 13:07:28;;;;;;;33.60;14.57;;;;;;;;;;5023199;28;20041;-61
2021/11/14 13:09:56;;;;;;;33.38;16.58;;;;;;;;;;5021905;28;20083;-60
2021/11/14 13:12:23;;;;;;;35.22;16.00;;;;;;;;;;5017439;28;20435;-60
2021/11/14 13:14:51;;;;;;;31.02;16.25;;;;;;;;;;5021572;28;20264;-61
2021/11/14 13:17:18;;;;;;;30.33;14.60;;;;;;;;;;5020705;28;20022;-60
2021/11/14 13:19:45;;;;;;;36.60;15.57;;;;;;;;;;5023453;28;20112;-60
2021/11/14 13:22:12;;;;;;;28.80;13.98;;;;;;;;;;5023659;28;20041;-60
2021/11/14 13:24:39;;;;;;;32.53;13.90;;;;;;;;;;5026725;28;20087;-60
2021/11/14 13:27:08;;;;;;;31.52;14.07;;;;;;;;;;5025874;28;20168;-60
2021/11/14 13:29:41;;;;;;;31.23;12.98;;;;;;;;;;5024867;28;20524;-60
2021/11/14 13:32:12;;;;;;;30.10;13.23;;;;;;;;;;5026290;28;20095;-60
2021/11/14 13:34:40;;;;;;;32.83;13.77;;;;;;;;;;5034018;28;20116;-60
2021/11/14 13:37:07;;;;;;;27.08;12.30;;;;;;;;;;5028287;28;20028;-61
2021/11/14 13:39:39;;;;;;;24.17;13.15;;;;;;;;;;5019756;28;20092;-61
2021/11/14 13:42:08;;;;;;;25.17;12.98;;;;;;;;;;5022932;28;20037;-61
2021/11/14 13:44:40;;;;;;;25.23;12.85;;;;;;;;;;5012562;28;20622;-61
2021/11/14 13:47:11;;;;;;;27.63;12.85;;;;;;;;;;5028454;28;20041;-61
2021/11/14 13:49:39;;;;;;;29.97;12.93;;;;;;;;;;5019766;28;20108;-61
2021/11/14 13:52:08;;;;;;;26.55;13.00;;;;;;;;;;5022285;28;20064;-61
2021/11/14 13:54:54;;;;;;;25.92;11.93;;;;;;;;;;5022977;28;20549;-61
2021/11/14 13:57:23;;;;;;;33.90;11.90;;;;;;;;;;5014749;28;20037;-61
2021/11/14 13:59:49;;;;;;;24.35;11.60;;;;;;;;;;5015108;28;20037;-61
2021/11/14 14:02:16;;;;;;;23.40;11.85;;;;;;;;;;5016979;28;20056;-61
2021/11/14 14:05:02;;;;;;;28.70;11.82;;;;;;;;;;5022569;28;20670;-61
2021/11/14 14:07:31;;;;;;;34.95;11.95;;;;;;;;;;5023236;28;20493;-61
2021/11/14 14:10:04;;;;;;;22.60;11.15;;;;;;;;;;5022331;28;20037;-61
2021/11/14 14:12:31;;;;;;;28.75;11.85;;;;;;;;;;5016034;28;20025;-61
2021/11/14 14:14:59;;;;;;;23.00;11.48;;;;;;;;;;5020482;28;20226;-61
2021/11/14 14:17:27;;;;;;;23.65;11.57;;;;;;;;;;5026083;28;20312;-62
2021/11/14 14:19:56;;;;;;;27.98;13.05;;;;;;;;;;5024718;28;20053;-61
2021/11/14 14:22:37;;;;;;;43.58;23.33;;;;;;;;;;5021043;28;20037;-61
2021/11/14 14:25:04;;;;;;;50.92;22.58;;;;;;;;;;5016610;28;20626;-61
2021/11/14 14:27:30;;;;;;;35.17;18.75;;;;;;;;;;5007229;28;20071;-61